Terminal Aerodrome Forecast
Issued by NWS Pueblo, CO

Home | Current Version | Previous Version | Text Only | Print | Product List | Glossary On
Versions: 1 2 3 4 5 6 7 8 9 10 11 12 13 14 15 16 17 18 19 20
000
FTUS45 KPUB 280520
TAFPUB
TAF
KPUB 280520Z 2806/2906 02025G35KT P6SM SCT200
     FM280800 02014G24KT P6SM SCT020
     FM281100 02014KT P6SM BKN020
     FM281500 11012KT P6SM SCT100
     FM290200 36015G25KT P6SM SCT080=

USA.gov is the U.S. government's official web portal to all federal, state and local government web resources and services.